Home   Weather   Austria   Vienna   Past weeks
Flag for Austria

Past Weather in Vienna, Vienna, Austria — Yesterday and Last 2 Weeks

Currently: 34 °F. Clear. (Weather station: Vienna Schwechat-Flughafen Airport, Austria). See more current weather

Past Weather in Vienna — Graph

°F

Vienna Temperature Yesterday

Maximum temperature yesterday: 48 °F (at 1:20 am)
Minimum temperature yesterday: 30 °F (at 11:20 pm)
Average temperature yesterday: 39 °F

High & Low Weather Summary for the Past Weeks

 TemperatureHumidityPressure
High68 °F (Feb 26, 2:50 pm)100% (Feb 20, 3:20 am)30.63 "Hg (Feb 20, 3:20 am)
Low23 °F (Mar 2, 6:20 am)26% (Feb 26, 2:50 pm)29.89 "Hg (Mar 5, 1:50 am)
Average40 °F81%30.39 "Hg
* Reported Feb 19 6:20 pm — Mar 6 6:50 pm, Vienna. Weather by CustomWeather, © 2021

Note: Actual official high and low records may vary slightly from our data, if they occured in-between our weather recording intervals... More about our weather records

Vienna Weather History for the Previous 24 Hours

Scroll right to see more
 ConditionsComfort  
Time TempWeatherWind HumidityBarometerVisibility
6:50 pm
Sat, Mar 6
34 °FClear.2 mph56%30.45 "Hg10 mi
6:20 pm36 °FClear.3 mph56%30.45 "Hg10 mi
5:50 pm37 °FClear.3 mph48%30.45 "Hg10 mi
5:20 pm37 °FSunny.7 mph48%30.42 "Hg10 mi
4:50 pm39 °FPassing clouds.7 mph45%30.42 "HgN/A
4:20 pm41 °FPassing clouds.6 mph39%30.45 "HgN/A
3:50 pm41 °FPassing clouds.3 mph36%30.45 "HgN/A
3:20 pm41 °FPassing clouds.8 mph39%30.45 "HgN/A
2:50 pm41 °FPassing clouds.7 mph36%30.45 "HgN/A
2:20 pm43 °FPassing clouds.9 mph36%30.48 "HgN/A
1:50 pm41 °FPassing clouds.8 mph39%30.48 "HgN/A
1:20 pm43 °FPassing clouds.5 mph39%30.48 "HgN/A
12:50 pm41 °FPassing clouds.7 mph39%30.51 "HgN/A
12:20 pm41 °FScattered clouds.2 mph39%30.51 "HgN/A
11:50 am39 °FScattered clouds.5 mph48%30.51 "HgN/A
11:20 am39 °FPassing clouds.3 mph48%30.51 "HgN/A
10:50 am39 °FPassing clouds.3 mph48%30.54 "HgN/A
10:20 am37 °FPassing clouds.5 mph56%30.54 "HgN/A
9:50 am37 °FPassing clouds.3 mph56%30.51 "HgN/A
9:20 am36 °FPassing clouds.2 mph60%30.51 "HgN/A
8:50 am34 °FSunny.2 mph65%30.51 "Hg10 mi
8:20 am32 °FSunny.1 mph75%30.51 "Hg10 mi
7:50 am30 °FSunny.2 mph75%30.51 "Hg10 mi
7:20 am28 °FSunny.1 mph74%30.48 "Hg10 mi
6:50 am27 °FSunny.3 mph80%30.48 "Hg10 mi
6:20 am27 °FClear.2 mph80%30.48 "Hg10 mi
5:50 am25 °FPassing clouds.3 mph80%30.48 "HgN/A
5:20 am27 °FClear.7 mph80%30.45 "Hg10 mi
4:50 am27 °FClear.6 mph80%30.45 "Hg10 mi
4:20 am28 °FClear.6 mph74%30.45 "Hg10 mi
3:50 am28 °FClear.8 mph74%30.45 "Hg10 mi
3:20 am30 °FClear.10 mph69%30.45 "Hg10 mi
2:50 am28 °FClear.9 mph74%30.45 "Hg10 mi
2:20 am30 °FClear.10 mph69%30.45 "Hg10 mi
1:50 am30 °FClear.9 mph69%30.45 "Hg10 mi
1:20 am30 °FPassing clouds.12 mph69%30.42 "HgN/A
12:50 am30 °FPassing clouds.9 mph69%30.42 "HgN/A
12:20 am30 °FPassing clouds.10 mph69%30.42 "HgN/A
11:50 pm
Fri, Mar 5
30 °FPassing clouds.12 mph69%30.39 "HgN/A
11:20 pm30 °FPassing clouds.10 mph69%30.39 "HgN/A
10:50 pm32 °FPassing clouds.12 mph64%30.39 "HgN/A
10:20 pm32 °FPassing clouds.12 mph64%30.36 "HgN/A
9:50 pm32 °FPassing clouds.10 mph64%30.36 "HgN/A
9:20 pm32 °FPassing clouds.13 mph69%30.36 "HgN/A
8:50 pm32 °FPassing clouds.13 mph69%30.33 "HgN/A
8:20 pm34 °FPassing clouds.12 mph70%30.33 "HgN/A
Weather by CustomWeather, © 2021

See weather overview